Oxford Miami University Airport

About
Name: Oxford Miami University Airport
Identifier:  OXD/KOXD
Local Time:  21. Sep 07:53 EDT
Location
Statistics
Flights per Day:
0 flights
Distance: 529km (329mi)
Flights delayed:
0% (0 flights per day delayed)
Delay Average: 1442 minutes
Current Weather
 20 C (Humidity: 93%)
  3kt (5km/h / 3mph) from 240°
  16km (10 mi.)
 
 METAR KOXD 211136Z AUTO 24003KT 10SM CLR 20/19 A3024 RMK AO2 T02000192

Current Delays

Departures
N/A
Arrivals
N/A

Destinations

Top Destinations
Airport Flights
per week
Seats
per week
  Toledo (TOL) 0 - 0 0
  Atlanta (PDK) 0 - 0 0

Airlines & Planes

Top Airlines
Airline Flights
per Day
Seats
per Day
Gama Aviation 0 -
Top Plane Types
Model Flights Seats
Pilatus PC-12 0.0/day - 0
Beech B300 Super King Air 350 0.0/day - 0